Manitou, Oklahoma
Current Conditions -  °F | °C
As of 12:53 PM on Saturday 20 Dec 2014 (Local Time) from KFDR Reporting Station
Haze Haze  
Wind Chill: 40°   Ceiling: 1200
Heat Index: 45°   Visibility: 5mi
Dew Point: 41°   Wind: 9mph
Humidity: 86%   Direction: 170°S
Pressure: 30.15"   Gusts: NA
Location:  34.51°N, 98.98°W
Report Text: KFDR 201853Z AUTO 17008KT 5SM BR BKN012 BKN017 OVC027 07/05 A3015 RMK AO2 SLP211 T00720050
Loading
Personal Weather Stations






























Interactive Weather Map New forecast layout! Learn more

10-Day Weather Forecast

Advertisements
Track Severe Weather on mobile